TE21 weather

Lobo Mountain Ranch Airport
Bandera, Texas, United States

Public forecast

Using degrees Fahrenheit for public forecast. Weather courtesy of forecast.io.

Closest aviation weather report (METAR) to Lobo Mountain Ranch Airport

Closest report is South Texas Regional Airport at Hondo, 18.1 nm (33.6 km) SSW. Retrieved 2019/10/17 16:51 UTC (57 minutes ago):

KHDO 171651Z AUTO 08007KT 10SM CLR 21/06 A3005 RMK AO2 SLP166 T02060061

Closest aviation forecast (TAF) to Lobo Mountain Ranch Airport

Forecast is more than 6 hours old.

Closest forecast is Lackland Air Force Base, 30.9 nm (57.2 km) ESE. Retrieved 2019/10/17 10:17 UTC (8 hours ago):

TAF KSKF 171000Z 1710/1816 VRB06KT 9999 BKN100 BKN220 QNH2995INS BECMG 1721/1722 06009KT 9999 FEW120 SCT250 QNH2990INS BECMG 1802/1803 VRB06KT 9999 SKC QNH2995INS TX24/1721Z TN15/1712Z